LBE - Arnold Palmer Rgnl

Pirep is a free, collaborative database of all public and private airports located within the United States. All pilots are welcome to contribute, edit, and improve any airport they have local knowledge about, no registration required.
Uploaded photos will be licensed under a CC BY-SA 4.0 license. Please only upload photos you have the rights to use.
Tags
Public
Food
Car Rental
Museum
METAR / TAF
Edit Tags
Camping
Lodging
Bicycles
Swimming
Golfing
Fishing
Hot Springs
Flying Clubs
Airpark
Upcoming Events
No upcoming events. Is anything happening here soon?
*
*
*

Where exactly on/near the airport is this event taking place?

Is there a webpage with more information for this event?

Who should be contacted for more information?

What is this event all about?

Repeat every
Description
Last updated: 2023-05-24 22:22:24 EDT
Transient Parking
Fuel Location
Landing & Tie-down Fees
Crew Car Availability
Flying Clubs
WiFi Access
Airport Statistics
Location: Latrobe, PA
Elevation: 1,198ft
Sectional: Detroit
Activation date: Apr 1938
Fuel: 100LL, A (prices)
Runway 06/24: 8,222ft
Access: Open to the public
Current Weather — VFR
  • Weather data is strictly informational and not for flight planning purposes.
  • METAR
    2024-05-24 20:45:00 EDT
    Ceiling Wind Temperature Dewpoint Weather Visbility
    Sky clear Calm 73°F 60°F N/A 10SM
    Raw: KLBE 250045Z 00000KT 10SM CLR 23/16 A2988
  • TAF
    2024-05-24 20:00:00 EDT – 2024-05-25 11:00:00 EDT
    Ceiling Wind Weather Visbility
    Sky clear Variable N/A 6SM
    Clouds: Few @ 6,000ft
    Raw: KLBE 242320Z 2500/2524 VRB03KT P6SM FEW060 FM251500 23010KT P6SM SCT040 BKN100 TEMPO 2520/2524 26015G30KT 4SM TSRA BKN040CB
  • TAF
    2024-05-25 11:00:00 EDT – 2024-05-25 20:00:00 EDT
    Ceiling Wind Weather Visbility
    10,000ft 230° @ 10kt N/A 6SM
    Clouds: Scattered @ 4,000ft, Broken @ 10,000ft
    Raw: KLBE 242320Z 2500/2524 VRB03KT P6SM FEW060 FM251500 23010KT P6SM SCT040 BKN100 TEMPO 2520/2524 26015G30KT 4SM TSRA BKN040CB
  • TAF
    2024-05-25 16:00:00 EDT – 2024-05-25 20:00:00 EDT
    Ceiling Wind Weather Visbility
    4,000ft 260° @ 15kt, gusts 30kt Thunderstorm rain 4SM
    Clouds: Broken @ 4,000ft
    Raw: KLBE 242320Z 2500/2524 VRB03KT P6SM FEW060 FM251500 23010KT P6SM SCT040 BKN100 TEMPO 2520/2524 26015G30KT 4SM TSRA BKN040CB
Click/tap to add an annotation marker to the map
Airport Webcams
No webcams added yet.
Direct links to live image URLs will be displayed inline on this page. URLs to separate webpages will be linked to.
URL:
Direct links to live image URLs will be displayed inline on this page. URLs to separate webpages will be linked to.
URL:
Remarks
  • Ppr 24 for unsked acft ops with more than 9 pax call amgr 724-640-7234
  • Deer & birds on & invof arpt.
  • For cd when atct clsd ctc johnstown apch at 814-532-5960, when apch clsd ctc cleveland artcc at 440-774-0213.
  • When atct clsd, actvt malsr rwy 24; reil rwy 06; hirl rwy 06/24; twy a, b, c & d - ctaf.
  • Rwy 24 papi unusbl byd 8 degs right of cntrln.
Comments
Leave a comment What was your experience like at this airport?